createdAt,value
2023-03-06T00:04:08.174Z,9.10
2023-03-06T00:09:11.894Z,9.05
2023-03-06T00:14:16.058Z,8.38
2023-03-06T00:19:20.986Z,9.02
2023-03-06T00:24:24.465Z,8.48
2023-03-06T00:29:27.916Z,7.93
2023-03-06T00:34:32.709Z,8.88
2023-03-06T00:39:36.156Z,7.90
2023-03-06T00:44:40.082Z,10.93
2023-03-06T00:49:45.252Z,10.05
2023-03-06T00:54:48.753Z,11.98
2023-03-06T00:59:52.243Z,9.43
2023-03-06T01:04:58.156Z,10.60
2023-03-06T01:10:01.703Z,6.85
2023-03-06T01:15:06.645Z,12.25
2023-03-06T01:20:15.154Z,9.52
2023-03-06T01:25:19.188Z,14.35
2023-03-06T01:30:22.671Z,9.93
2023-03-06T01:35:27.500Z,9.13
2023-03-06T01:40:32.778Z,11.88
2023-03-06T01:46:13.388Z,8.70
2023-03-06T01:51:18.696Z,9.45
2023-03-06T01:56:22.600Z,8.35
2023-03-06T02:01:27.409Z,12.48
2023-03-06T02:06:33.305Z,10.85
2023-03-06T02:11:36.967Z,10.02
2023-03-06T02:16:42.036Z,13.80
2023-03-06T02:21:47.127Z,11.00
2023-03-06T02:26:54.268Z,12.73
2023-03-06T02:31:58.072Z,11.93
2023-03-06T02:37:03.988Z,15.35
2023-03-06T02:42:09.082Z,14.30
2023-03-06T02:47:12.491Z,12.93
2023-03-06T02:52:15.885Z,13.45
2023-03-06T02:57:20.645Z,15.02
2023-03-06T03:02:24.044Z,15.95
2023-03-06T03:07:27.658Z,17.75
2023-03-06T03:12:33.590Z,11.90
2023-03-06T03:17:37.530Z,16.30
2023-03-06T03:22:41.068Z,14.07
2023-03-06T03:27:46.187Z,14.32
2023-03-06T03:32:49.577Z,16.52
2023-03-06T03:37:54.763Z,14.07
2023-03-06T03:42:59.786Z,15.50
2023-03-06T03:48:03.153Z,14.80
2023-03-06T03:53:06.805Z,14.38
2023-03-06T03:58:11.566Z,13.95
2023-03-06T04:03:14.977Z,15.65
2023-03-06T04:08:18.386Z,16.40
2023-03-06T04:13:23.868Z,23.80
2023-03-06T04:18:28.493Z,24.98
2023-03-06T04:23:32.079Z,25.50
2023-03-06T04:28:36.810Z,21.95
2023-03-06T04:33:40.246Z,17.48
2023-03-06T04:38:43.677Z,21.20
2023-03-06T04:43:48.482Z,19.67
2023-03-06T04:48:51.855Z,19.10
2023-03-06T04:53:55.263Z,17.02
2023-03-06T04:59:00.048Z,15.68
2023-03-06T05:04:03.546Z,19.13
2023-03-06T05:09:07.259Z,17.42
2023-03-06T05:14:12.059Z,16.23
2023-03-06T05:19:15.676Z,16.05
2023-03-06T05:24:19.111Z,12.68
2023-03-06T05:29:24.333Z,14.52
2023-03-06T05:34:27.758Z,12.48
2023-03-06T05:39:31.728Z,13.63
2023-03-06T05:44:37.412Z,14.57
2023-03-06T05:49:41.735Z,13.90
2023-03-06T05:54:45.265Z,14.80
2023-03-06T05:59:51.631Z,15.35
2023-03-06T06:04:55.264Z,12.30
2023-03-06T06:09:58.660Z,11.52
2023-03-06T06:15:03.450Z,11.27
2023-03-06T06:20:07.755Z,12.68
2023-03-06T06:25:11.525Z,14.98
2023-03-06T06:30:16.919Z,13.10
2023-03-06T06:35:20.331Z,16.45
2023-03-06T06:40:24.441Z,14.65
2023-03-06T06:45:30.029Z,14.68
2023-03-06T06:50:33.454Z,14.25
2023-03-06T06:55:38.930Z,16.30
2023-03-06T07:00:43.675Z,16.55
2023-03-06T07:05:47.306Z,16.85
2023-03-06T07:10:50.743Z,18.25
2023-03-06T07:15:55.574Z,15.10
2023-03-06T07:21:01.259Z,19.58
2023-03-06T07:26:05.175Z,17.00
2023-03-06T07:31:11.964Z,21.02
2023-03-06T07:36:15.521Z,22.42
2023-03-06T07:41:21.216Z,19.55
2023-03-06T07:46:27.719Z,20.13
2023-03-06T07:51:31.239Z,21.95
2023-03-06T07:56:35.479Z,19.08
2023-03-06T08:01:40.467Z,19.95
2023-03-06T08:06:44.086Z,20.77
2023-03-06T08:11:47.519Z,21.38
2023-03-06T08:16:52.908Z,20.80
2023-03-06T08:21:57.490Z,23.77
2023-03-06T08:27:01.754Z,24.00
2023-03-06T08:32:07.422Z,20.83
2023-03-06T08:37:10.890Z,21.08
2023-03-06T08:42:14.520Z,21.15
2023-03-06T08:47:19.306Z,31.95
2023-03-06T08:52:22.676Z,39.40
2023-03-06T08:57:26.127Z,22.98
2023-03-06T09:02:31.087Z,19.98
2023-03-06T09:07:35.307Z,24.30
2023-03-06T09:12:49.746Z,22.70
2023-03-06T09:17:56.301Z,19.65
2023-03-06T09:23:00.063Z,18.98
2023-03-06T09:28:11.262Z,17.00
2023-03-06T09:33:18.055Z,16.95
2023-03-06T09:38:23.736Z,19.35
2023-03-06T09:43:30.807Z,17.00
2023-03-06T09:48:43.485Z,16.55
2023-03-06T09:54:06.826Z,18.60
2023-03-06T09:59:15.329Z,15.02
2023-03-06T10:04:33.296Z,14.50
2023-03-06T10:09:42.874Z,14.15
2023-03-06T10:14:49.323Z,16.23
2023-03-06T10:19:54.454Z,17.63
2023-03-06T10:25:04.246Z,17.35
2023-03-06T10:30:27.360Z,19.77
2023-03-06T10:35:46.896Z,18.47
2023-03-06T10:41:06.715Z,17.13
2023-03-06T10:46:13.207Z,16.10
2023-03-06T10:51:20.109Z,15.70
2023-03-06T10:56:32.206Z,14.32
2023-03-06T11:01:36.190Z,16.70
2023-03-06T11:06:41.176Z,15.30
2023-03-06T11:11:44.920Z,13.60
2023-03-06T11:16:53.251Z,12.73
2023-03-06T11:22:03.549Z,12.57
2023-03-06T11:27:23.724Z,13.73
2023-03-06T11:32:30.511Z,14.27
2023-03-06T11:37:44.498Z,13.60
2023-03-06T11:42:53.944Z,14.60
2023-03-06T11:48:04.684Z,9.73
2023-03-06T11:53:13.051Z,14.27
2023-03-06T11:58:39.139Z,11.73
2023-03-06T12:04:19.988Z,12.15
2023-03-06T12:09:39.261Z,11.38
2023-03-06T12:15:12.082Z,13.00
2023-03-06T12:20:25.623Z,11.43
2023-03-06T12:25:36.399Z,12.52
2023-03-06T12:31:03.503Z,13.02
2023-03-06T12:36:28.087Z,13.90
2023-03-06T12:41:44.382Z,13.43
2023-03-06T12:46:52.824Z,14.05
2023-03-06T12:51:58.018Z,10.85
2023-03-06T12:57:03.403Z,10.15
2023-03-06T13:02:42.750Z,12.25
2023-03-06T13:08:01.187Z,12.05
2023-03-06T13:13:31.077Z,11.75
2023-03-06T13:19:05.242Z,10.82
2023-03-06T13:24:17.385Z,11.80
2023-03-06T13:29:51.367Z,14.23
2023-03-06T13:34:54.780Z,15.80
2023-03-06T13:40:30.877Z,9.90
2023-03-06T13:45:40.336Z,10.95
2023-03-06T13:50:45.328Z,13.43
2023-03-06T13:56:02.299Z,11.57
2023-03-06T14:01:21.858Z,13.82
2023-03-06T14:07:05.652Z,15.07
2023-03-06T14:12:18.821Z,15.95
2023-03-06T14:17:29.656Z,24.92
2023-03-06T14:22:33.370Z,17.55
2023-03-06T14:27:46.192Z,18.55
2023-03-06T14:32:53.474Z,18.00
2023-03-06T14:38:01.639Z,17.58
2023-03-06T14:43:19.208Z,14.82
2023-03-06T14:48:25.990Z,17.48
2023-03-06T14:53:31.270Z,18.67
2023-03-06T14:58:40.277Z,16.25
2023-03-06T15:03:48.784Z,15.45
2023-03-06T15:08:59.139Z,15.48
2023-03-06T15:14:05.368Z,15.20
2023-03-06T15:19:20.265Z,14.73
2023-03-06T15:24:35.928Z,13.95
2023-03-06T15:29:40.330Z,17.13
2023-03-06T15:34:45.263Z,19.17
2023-03-06T15:40:06.616Z,14.18
2023-03-06T15:45:16.285Z,16.88
2023-03-06T15:50:24.461Z,16.58
2023-03-06T15:55:27.956Z,14.68
2023-03-06T16:00:35.185Z,17.15
2023-03-06T16:05:40.168Z,16.80
2023-03-06T16:10:46.394Z,18.08
2023-03-06T16:15:51.276Z,17.63
2023-03-06T16:20:57.044Z,16.00
2023-03-06T16:26:00.693Z,18.23
2023-03-06T16:31:04.346Z,18.13
2023-03-06T16:36:14.290Z,18.65
2023-03-06T16:41:19.190Z,23.67
2023-03-06T16:46:24.968Z,18.27
2023-03-06T16:51:30.316Z,21.60
2023-03-06T16:56:33.737Z,16.58
2023-03-06T17:01:37.680Z,35.88
2023-03-06T17:06:43.193Z,21.75
2023-03-06T17:11:46.882Z,19.17
2023-03-06T17:16:50.321Z,18.67
2023-03-06T17:21:55.661Z,18.38
2023-03-06T17:26:59.639Z,23.63
2023-03-06T17:32:03.401Z,20.05
2023-03-06T17:37:08.658Z,22.95
2023-03-06T17:42:12.255Z,26.23
2023-03-06T17:47:15.676Z,19.60
2023-03-06T17:52:20.637Z,18.30
2023-03-06T17:57:24.072Z,20.45
2023-03-06T18:02:27.505Z,19.52
2023-03-06T18:07:32.315Z,22.10
2023-03-06T18:12:35.739Z,32.10
2023-03-06T18:17:39.590Z,36.45
2023-03-06T18:22:44.382Z,36.40
2023-03-06T18:27:47.812Z,37.47
2023-03-06T18:32:51.232Z,35.40
2023-03-06T18:37:56.661Z,41.60
2023-03-06T18:43:00.314Z,51.50
2023-03-06T18:48:05.015Z,41.80
2023-03-06T18:53:09.864Z,38.45
2023-03-06T18:58:13.277Z,37.13
2023-03-06T19:03:16.983Z,39.65
2023-03-06T19:08:21.677Z,34.28
2023-03-06T19:13:25.059Z,37.60
2023-03-06T19:18:29.474Z,32.88
2023-03-06T19:23:34.220Z,35.55
2023-03-06T19:28:38.977Z,32.70
2023-03-06T19:33:43.716Z,39.03
2023-03-06T19:38:52.508Z,33.88
2023-03-06T19:43:58.367Z,37.50
2023-03-06T19:49:03.202Z,29.00
2023-03-06T19:54:07.977Z,31.20
2023-03-06T19:59:11.724Z,33.25
2023-03-06T20:04:16.475Z,32.13
2023-03-06T20:09:21.229Z,31.35
2023-03-06T20:14:24.611Z,34.63
2023-03-06T20:19:28.145Z,35.28
2023-03-06T20:24:32.924Z,34.10
2023-03-06T20:29:36.538Z,38.60
2023-03-06T20:34:41.137Z,41.65
2023-03-06T20:39:46.729Z,36.83
2023-03-06T20:44:50.149Z,38.50
2023-03-06T20:49:53.548Z,37.47
2023-03-06T20:54:58.949Z,34.60
2023-03-06T21:00:02.331Z,38.58
2023-03-06T21:05:06.635Z,37.72
2023-03-06T21:10:14.577Z,40.45
2023-03-06T21:15:19.549Z,35.72
2023-03-06T21:20:23.264Z,38.20
2023-03-06T21:25:28.682Z,37.88
2023-03-06T21:30:32.110Z,49.60
2023-03-06T21:35:38.637Z,55.85
2023-03-06T21:40:45.442Z,60.80
2023-03-06T21:45:52.686Z,52.65
2023-03-06T21:51:05.208Z,47.78
2023-03-06T21:56:11.386Z,40.47
2023-03-06T22:01:18.312Z,32.38
2023-03-06T22:06:23.567Z,42.08
2023-03-06T22:11:34.233Z,48.28
2023-03-06T22:16:37.758Z,40.00
2023-03-06T22:21:41.184Z,33.45
2023-03-06T22:26:46.016Z,32.47
2023-03-06T22:31:49.726Z,31.60
2023-03-06T22:36:53.506Z,32.58
2023-03-06T22:41:58.801Z,31.60
2023-03-06T22:47:02.623Z,39.78
2023-03-06T22:52:06.361Z,38.42
2023-03-06T22:57:11.131Z,39.92
2023-03-06T23:02:14.478Z,40.55
2023-03-06T23:07:18.164Z,37.03
2023-03-06T23:12:22.959Z,38.33
2023-03-06T23:17:26.420Z,40.40
2023-03-06T23:22:29.824Z,40.95
2023-03-06T23:27:36.648Z,47.25
2023-03-06T23:32:40.185Z,46.58
2023-03-06T23:37:43.687Z,39.25
2023-03-06T23:42:48.565Z,44.25
2023-03-06T23:47:51.939Z,40.33
2023-03-06T23:52:56.182Z,38.80
2023-03-06T23:58:01.879Z,39.13
